createdAt,value
2023-05-06T00:00:20.934Z,53.12
2023-05-06T00:02:48.238Z,53.40
2023-05-06T00:05:18.498Z,54.10
2023-05-06T00:07:48.588Z,54.84
2023-05-06T00:10:16.302Z,54.60
2023-05-06T00:12:43.308Z,54.68
2023-05-06T00:15:11.618Z,54.35
2023-05-06T00:17:38.987Z,54.59
2023-05-06T00:20:07.311Z,54.42
2023-05-06T00:22:34.557Z,54.22
2023-05-06T00:25:01.901Z,53.85
2023-05-06T00:27:29.014Z,54.52
2023-05-06T00:29:57.963Z,55.20
2023-05-06T00:32:25.090Z,54.30
2023-05-06T00:34:52.162Z,54.48
2023-05-06T00:37:19.287Z,53.99
2023-05-06T00:39:46.328Z,54.95
2023-05-06T00:42:13.593Z,55.35
2023-05-06T00:44:40.701Z,55.65
2023-05-06T00:47:08.518Z,55.55
2023-05-06T00:49:35.722Z,55.57
2023-05-06T00:52:03.802Z,56.12
2023-05-06T00:54:30.941Z,56.25
2023-05-06T00:56:58.229Z,57.08
2023-05-06T00:59:25.525Z,57.40
2023-05-06T01:01:54.035Z,57.43
2023-05-06T01:04:24.055Z,57.49
2023-05-06T01:07:24.850Z,57.87
2023-05-06T01:10:01.311Z,58.02
2023-05-06T01:12:44.471Z,58.22
2023-05-06T01:15:22.711Z,58.30
2023-05-06T01:17:53.619Z,58.16
2023-05-06T01:20:22.119Z,57.92
2023-05-06T01:22:50.323Z,57.79
2023-05-06T01:25:23.966Z,57.79
2023-05-06T01:27:51.214Z,58.19
2023-05-06T01:30:19.787Z,58.33
2023-05-06T01:33:07.137Z,58.41
2023-05-06T01:35:48.092Z,58.04
2023-05-06T01:38:24.877Z,58.11
2023-05-06T01:40:55.649Z,58.30
2023-05-06T01:43:29.379Z,57.96
2023-05-06T01:45:57.373Z,57.97
2023-05-06T01:48:28.562Z,57.83
2023-05-06T01:50:55.962Z,57.58
2023-05-06T01:53:23.086Z,57.77
2023-05-06T01:55:50.283Z,57.93
2023-05-06T01:58:17.478Z,58.45
2023-05-06T02:00:44.577Z,58.53
2023-05-06T02:03:12.462Z,58.22
2023-05-06T02:05:39.747Z,57.93
2023-05-06T02:08:07.468Z,58.46
2023-05-06T02:10:34.668Z,58.88
2023-05-06T02:13:05.928Z,59.32
2023-05-06T02:15:33.138Z,59.51
2023-05-06T02:18:01.629Z,59.74
2023-05-06T02:20:28.838Z,59.79
2023-05-06T02:22:56.363Z,59.79
2023-05-06T02:25:23.514Z,60.03
2023-05-06T02:27:50.646Z,60.01
2023-05-06T02:30:17.751Z,60.00
2023-05-06T02:32:44.890Z,59.79
2023-05-06T02:35:12.227Z,59.39
2023-05-06T02:37:39.474Z,59.52
2023-05-06T02:40:07.635Z,59.97
2023-05-06T02:42:35.885Z,59.75
2023-05-06T02:45:03.436Z,59.78
2023-05-06T02:47:32.657Z,59.40
2023-05-06T02:49:59.798Z,59.56
2023-05-06T02:52:27.039Z,59.79
2023-05-06T02:54:54.226Z,60.08
2023-05-06T02:57:21.530Z,60.06
2023-05-06T02:59:48.674Z,60.16
2023-05-06T03:02:15.825Z,60.19
2023-05-06T03:04:42.926Z,59.90
2023-05-06T03:07:10.244Z,59.45
2023-05-06T03:09:37.604Z,59.12
2023-05-06T03:12:06.270Z,59.01
2023-05-06T03:14:33.570Z,58.43
2023-05-06T03:17:00.848Z,58.82
2023-05-06T03:19:27.929Z,59.22
2023-05-06T03:21:55.242Z,59.67
2023-05-06T03:24:22.494Z,59.88
2023-05-06T03:26:49.643Z,59.80
2023-05-06T03:29:16.781Z,59.69
2023-05-06T03:31:45.845Z,59.67
2023-05-06T03:34:13.542Z,59.78
2023-05-06T03:36:41.338Z,59.90
2023-05-06T03:39:08.464Z,59.80
2023-05-06T03:41:37.657Z,59.82
2023-05-06T03:44:05.282Z,59.57
2023-05-06T03:46:32.917Z,59.87
2023-05-06T03:49:02.838Z,59.42
2023-05-06T03:51:30.857Z,59.18
2023-05-06T03:53:58.370Z,59.56
2023-05-06T03:56:25.507Z,59.33
2023-05-06T03:58:55.427Z,59.45
2023-05-06T04:01:25.125Z,59.00
2023-05-06T04:03:54.426Z,59.53
2023-05-06T04:06:23.578Z,59.20
2023-05-06T04:08:50.700Z,59.33
2023-05-06T04:11:18.754Z,59.42
2023-05-06T04:13:47.092Z,59.56
2023-05-06T04:16:17.670Z,59.47
2023-05-06T04:18:46.245Z,59.77
2023-05-06T04:21:15.882Z,59.56
2023-05-06T04:23:48.347Z,59.58
2023-05-06T04:26:19.470Z,59.50
2023-05-06T04:28:47.345Z,59.38
2023-05-06T04:31:15.643Z,59.22
2023-05-06T04:33:45.940Z,58.90
2023-05-06T04:36:19.817Z,59.31
2023-05-06T04:39:01.026Z,59.00
2023-05-06T04:41:31.331Z,58.85
2023-05-06T04:43:59.254Z,58.69
2023-05-06T04:46:26.534Z,58.90
2023-05-06T04:48:55.187Z,58.57
2023-05-06T04:51:23.651Z,58.50
2023-05-06T04:53:51.413Z,58.24
2023-05-06T04:56:19.047Z,58.16
2023-05-06T04:58:49.646Z,57.66
2023-05-06T05:01:17.169Z,57.83
2023-05-06T05:03:44.766Z,58.18
2023-05-06T05:06:13.749Z,58.38
2023-05-06T05:08:40.869Z,58.62
2023-05-06T05:11:09.395Z,57.99
2023-05-06T05:13:37.202Z,57.72
2023-05-06T05:16:06.751Z,57.05
2023-05-06T05:18:36.843Z,57.17
2023-05-06T05:21:11.086Z,57.25
2023-05-06T05:23:38.261Z,55.80
2023-05-06T05:26:05.636Z,56.56
2023-05-06T05:28:32.744Z,56.64
2023-05-06T05:31:05.680Z,56.85
2023-05-06T05:33:35.788Z,57.35
2023-05-06T05:36:06.088Z,57.49
2023-05-06T05:38:34.261Z,57.05
2023-05-06T05:41:01.492Z,57.05
2023-05-06T05:43:29.385Z,56.36
2023-05-06T05:45:56.488Z,56.58
2023-05-06T05:48:24.111Z,56.38
2023-05-06T05:50:52.018Z,57.46
2023-05-06T05:53:20.080Z,57.92
2023-05-06T05:55:47.173Z,57.61
2023-05-06T05:58:14.997Z,58.28
2023-05-06T06:00:43.430Z,57.39
2023-05-06T06:03:14.898Z,56.36
2023-05-06T06:05:42.015Z,55.91
2023-05-06T06:08:10.149Z,55.38
2023-05-06T06:10:37.404Z,55.88
2023-05-06T06:13:10.879Z,55.76
2023-05-06T06:15:38.051Z,55.70
2023-05-06T06:18:08.156Z,55.60
2023-05-06T06:20:36.872Z,56.27
2023-05-06T06:23:03.993Z,56.66
2023-05-06T06:25:31.288Z,56.85
2023-05-06T06:27:58.807Z,56.40
2023-05-06T06:30:26.017Z,55.56
2023-05-06T06:32:55.028Z,55.69
2023-05-06T06:35:23.499Z,55.41
2023-05-06T06:37:51.061Z,54.69
2023-05-06T06:40:18.195Z,54.03
2023-05-06T06:42:46.523Z,54.55
2023-05-06T06:45:32.721Z,54.12
2023-05-06T06:47:59.877Z,53.32
2023-05-06T06:50:26.981Z,53.02
2023-05-06T06:52:54.073Z,52.82
2023-05-06T06:55:21.793Z,53.08
2023-05-06T06:57:49.251Z,52.07
2023-05-06T07:00:16.884Z,52.54
2023-05-06T07:02:44.525Z,52.38
2023-05-06T07:05:11.786Z,52.75
2023-05-06T07:07:39.118Z,52.22
2023-05-06T07:10:07.316Z,52.93
2023-05-06T07:12:34.452Z,53.21
2023-05-06T07:15:01.519Z,52.27
2023-05-06T07:17:28.576Z,51.29
2023-05-06T07:19:55.760Z,53.20
2023-05-06T07:22:22.837Z,52.56
2023-05-06T07:24:49.917Z,53.34
2023-05-06T07:27:16.975Z,53.29
2023-05-06T07:29:44.040Z,53.24
2023-05-06T07:32:11.199Z,52.47
2023-05-06T07:34:39.017Z,52.19
2023-05-06T07:37:08.041Z,53.21
2023-05-06T07:39:35.411Z,52.05
2023-05-06T07:42:02.481Z,52.57
2023-05-06T07:44:29.540Z,52.07
2023-05-06T07:46:56.814Z,51.75
2023-05-06T07:49:24.217Z,52.00
2023-05-06T07:51:51.741Z,52.23
2023-05-06T07:54:19.095Z,52.33
2023-05-06T07:56:46.323Z,51.53
2023-05-06T07:59:13.498Z,50.98
2023-05-06T08:01:40.770Z,50.61
2023-05-06T08:04:08.025Z,52.14
2023-05-06T08:06:35.358Z,53.32
2023-05-06T08:09:02.750Z,53.02
2023-05-06T08:11:30.262Z,52.08
2023-05-06T08:13:57.648Z,51.55
2023-05-06T08:16:25.548Z,50.92
2023-05-06T08:18:53.013Z,50.54
2023-05-06T08:21:20.234Z,50.70
2023-05-06T08:23:47.768Z,50.64
2023-05-06T08:26:15.110Z,51.24
2023-05-06T08:28:42.331Z,51.78
2023-05-06T08:31:09.499Z,51.46
2023-05-06T08:33:36.696Z,50.06
2023-05-06T08:36:07.025Z,50.80
2023-05-06T08:38:34.413Z,50.50
2023-05-06T08:41:09.818Z,50.33
2023-05-06T08:43:42.678Z,51.07
2023-05-06T08:46:09.942Z,52.06
2023-05-06T08:48:37.677Z,52.04
2023-05-06T08:51:05.442Z,52.12
2023-05-06T08:53:34.124Z,52.07
2023-05-06T08:56:11.644Z,52.16
2023-05-06T08:58:41.526Z,52.08
2023-05-06T09:01:09.528Z,53.34
2023-05-06T09:03:36.967Z,53.59
2023-05-06T09:06:04.654Z,53.35
2023-05-06T09:08:32.035Z,52.87
2023-05-06T09:10:59.826Z,51.93
2023-05-06T09:13:26.995Z,51.53
2023-05-06T09:15:55.349Z,50.41
2023-05-06T09:18:23.217Z,50.83
2023-05-06T09:20:50.630Z,51.41
2023-05-06T09:23:18.592Z,52.71
2023-05-06T09:25:51.380Z,51.91
2023-05-06T09:28:18.744Z,51.19
2023-05-06T09:30:48.005Z,49.96
2023-05-06T09:33:15.484Z,49.09
2023-05-06T09:35:44.386Z,49.49
2023-05-06T09:38:11.748Z,50.00
2023-05-06T09:40:39.885Z,49.20
2023-05-06T09:43:07.842Z,49.11
2023-05-06T09:45:36.359Z,49.25
2023-05-06T09:48:04.055Z,47.93
2023-05-06T09:50:32.653Z,47.95
2023-05-06T09:53:03.740Z,47.96
2023-05-06T09:55:31.349Z,48.58
2023-05-06T09:57:59.518Z,48.71
2023-05-06T10:00:29.063Z,49.20
2023-05-06T10:02:57.129Z,48.40
2023-05-06T10:05:26.520Z,49.75
2023-05-06T10:07:55.035Z,50.12
2023-05-06T10:10:24.866Z,51.13
2023-05-06T10:12:53.417Z,50.31
2023-05-06T10:15:20.698Z,50.64
2023-05-06T10:17:50.472Z,50.59
2023-05-06T10:20:21.348Z,49.66
2023-05-06T10:23:07.985Z,47.43
2023-05-06T10:25:41.117Z,48.24
2023-05-06T10:28:19.828Z,48.80
2023-05-06T10:30:58.673Z,48.63
2023-05-06T10:33:28.417Z,47.38
2023-05-06T10:36:20.493Z,46.81
2023-05-06T10:38:54.951Z,47.46
2023-05-06T10:41:23.806Z,47.71
2023-05-06T10:43:56.885Z,47.03
2023-05-06T10:46:26.953Z,47.47
2023-05-06T10:49:06.546Z,46.45
2023-05-06T10:51:35.180Z,46.99
2023-05-06T10:54:20.502Z,47.58
2023-05-06T10:56:50.995Z,47.79
2023-05-06T10:59:24.513Z,48.10
2023-05-06T11:02:08.023Z,49.29
2023-05-06T11:04:35.556Z,47.50
2023-05-06T11:07:18.503Z,46.76
2023-05-06T11:10:06.252Z,46.72
2023-05-06T11:12:52.592Z,45.79
2023-05-06T11:15:43.170Z,46.84
2023-05-06T11:18:29.176Z,47.84
2023-05-06T11:21:04.609Z,46.99
2023-05-06T11:23:47.018Z,45.73
2023-05-06T11:26:15.104Z,45.70
2023-05-06T11:28:50.582Z,46.77
2023-05-06T11:31:21.029Z,45.70
2023-05-06T11:33:50.395Z,44.63
2023-05-06T11:36:19.620Z,43.69
2023-05-06T11:38:49.694Z,44.66
2023-05-06T11:41:17.579Z,44.68
2023-05-06T11:43:52.170Z,44.04
2023-05-06T11:46:21.275Z,42.32
2023-05-06T11:48:49.478Z,40.53
2023-05-06T11:51:22.073Z,40.06
2023-05-06T11:53:49.166Z,39.07
2023-05-06T11:56:16.267Z,39.97
2023-05-06T11:58:44.200Z,39.66
2023-05-06T12:01:11.269Z,39.86
2023-05-06T12:03:38.525Z,40.91
2023-05-06T12:06:06.196Z,40.10
2023-05-06T12:08:35.142Z,40.70
2023-05-06T12:11:06.355Z,39.56
2023-05-06T12:13:36.871Z,38.09
2023-05-06T12:16:08.319Z,37.50
2023-05-06T12:18:36.266Z,38.28
2023-05-06T12:21:03.848Z,38.51
2023-05-06T12:23:31.156Z,38.58
2023-05-06T12:26:05.120Z,39.21
2023-05-06T12:28:35.284Z,40.24
2023-05-06T12:31:24.392Z,39.46
2023-05-06T12:33:51.802Z,36.77
2023-05-06T12:36:19.834Z,35.83
2023-05-06T12:38:57.775Z,36.74
2023-05-06T12:41:36.829Z,37.10
2023-05-06T12:44:37.666Z,38.47
2023-05-06T12:47:27.303Z,39.25
2023-05-06T12:50:00.797Z,38.92
2023-05-06T12:52:30.285Z,39.14
2023-05-06T12:55:00.868Z,36.41
2023-05-06T12:57:28.189Z,35.32
2023-05-06T12:59:56.450Z,35.63
2023-05-06T13:02:23.703Z,36.25
2023-05-06T13:04:51.094Z,36.78
2023-05-06T13:07:18.260Z,36.21
2023-05-06T13:09:45.503Z,36.32
2023-05-06T13:12:13.097Z,35.83
2023-05-06T13:14:40.561Z,33.97
2023-05-06T13:17:08.495Z,33.86
2023-05-06T13:19:36.022Z,33.77
2023-05-06T13:22:03.313Z,35.35
2023-05-06T13:24:32.174Z,36.30
2023-05-06T13:27:01.265Z,37.24
2023-05-06T13:29:29.654Z,39.10
2023-05-06T13:31:57.052Z,39.95
2023-05-06T13:34:24.296Z,40.46
2023-05-06T13:36:52.105Z,41.39
2023-05-06T13:39:19.872Z,40.82
2023-05-06T13:41:48.248Z,40.57
2023-05-06T13:44:18.648Z,38.72
2023-05-06T13:46:46.854Z,34.56
2023-05-06T13:49:18.466Z,33.44
2023-05-06T13:51:45.690Z,30.81
2023-05-06T13:54:12.948Z,28.37
2023-05-06T13:56:40.129Z,29.02
2023-05-06T13:59:08.349Z,30.56
2023-05-06T14:01:36.130Z,31.81
2023-05-06T14:04:03.456Z,34.73
2023-05-06T14:06:31.202Z,36.23
2023-05-06T14:08:58.449Z,38.75
2023-05-06T14:11:26.129Z,39.95
2023-05-06T14:13:55.860Z,40.26
2023-05-06T14:16:24.226Z,41.83
2023-05-06T14:18:51.418Z,42.02
2023-05-06T14:21:18.496Z,41.55
2023-05-06T14:23:45.767Z,41.17
2023-05-06T14:26:14.186Z,40.64
2023-05-06T14:28:41.473Z,40.66
2023-05-06T14:31:08.729Z,41.14
2023-05-06T14:33:37.970Z,41.49
2023-05-06T14:36:06.037Z,41.62
2023-05-06T14:38:36.194Z,41.74
2023-05-06T14:41:03.283Z,41.51
2023-05-06T14:43:30.618Z,39.13
2023-05-06T14:45:57.670Z,37.08
2023-05-06T14:48:25.500Z,37.60
2023-05-06T14:50:53.120Z,36.59
2023-05-06T14:53:20.182Z,36.73
2023-05-06T14:55:48.902Z,35.85
2023-05-06T14:58:16.068Z,35.25
2023-05-06T15:00:43.436Z,36.62
2023-05-06T15:03:10.674Z,37.67
2023-05-06T15:05:38.129Z,39.28
2023-05-06T15:08:06.849Z,39.81
2023-05-06T15:10:33.947Z,40.11
2023-05-06T15:13:01.165Z,40.96
2023-05-06T15:15:28.370Z,41.78
2023-05-06T15:17:55.457Z,42.47
2023-05-06T15:20:22.636Z,42.76
2023-05-06T15:22:49.822Z,42.63
2023-05-06T15:25:30.270Z,43.07
2023-05-06T15:28:01.838Z,41.78
2023-05-06T15:30:29.001Z,40.77
2023-05-06T15:32:56.104Z,40.66
2023-05-06T15:35:23.651Z,40.85
2023-05-06T15:37:58.528Z,40.97
2023-05-06T15:40:26.611Z,41.73
2023-05-06T15:42:53.897Z,42.16
2023-05-06T15:45:22.171Z,41.92
2023-05-06T15:47:49.317Z,41.24
2023-05-06T15:50:31.690Z,37.53
2023-05-06T15:53:01.270Z,34.68
2023-05-06T15:55:28.904Z,35.56
2023-05-06T15:57:57.965Z,36.59
2023-05-06T16:00:27.884Z,37.87
2023-05-06T16:02:55.224Z,38.24
2023-05-06T16:05:22.616Z,39.35
2023-05-06T16:07:49.787Z,40.02
2023-05-06T16:10:17.077Z,40.59
2023-05-06T16:12:44.268Z,40.37
2023-05-06T16:15:11.912Z,39.88
2023-05-06T16:17:39.086Z,39.33
2023-05-06T16:20:10.379Z,39.46
2023-05-06T16:22:40.171Z,39.43
2023-05-06T16:25:07.963Z,39.76
2023-05-06T16:27:35.549Z,39.75
2023-05-06T16:30:02.898Z,39.28
2023-05-06T16:32:31.098Z,37.46
2023-05-06T16:34:59.482Z,37.75
2023-05-06T16:37:28.276Z,38.00
2023-05-06T16:39:55.980Z,38.29
2023-05-06T16:42:23.272Z,38.99
2023-05-06T16:44:51.228Z,40.24
2023-05-06T16:47:23.458Z,40.63
2023-05-06T16:49:51.176Z,41.38
2023-05-06T16:52:19.548Z,42.55
2023-05-06T16:54:46.679Z,42.91
2023-05-06T16:57:13.843Z,43.15
2023-05-06T16:59:40.993Z,43.13
2023-05-06T17:02:08.249Z,43.49
2023-05-06T17:04:36.789Z,45.42
2023-05-06T17:07:04.441Z,44.25
2023-05-06T17:09:31.561Z,44.17
2023-05-06T17:11:58.847Z,45.37
2023-05-06T17:14:26.149Z,45.02
2023-05-06T17:16:53.374Z,45.32
2023-05-06T17:19:20.547Z,45.57
2023-05-06T17:21:47.647Z,46.54
2023-05-06T17:24:14.725Z,47.11
2023-05-06T17:26:41.804Z,47.82
2023-05-06T17:29:08.880Z,47.59
2023-05-06T17:31:36.010Z,47.35
2023-05-06T17:34:03.897Z,47.28
2023-05-06T17:36:31.700Z,46.81
2023-05-06T17:39:04.941Z,47.04
2023-05-06T17:41:32.651Z,46.99
2023-05-06T17:43:59.964Z,47.25
2023-05-06T17:46:28.641Z,46.70
2023-05-06T17:48:55.901Z,47.08
2023-05-06T17:51:23.250Z,46.82
2023-05-06T17:53:51.184Z,46.97
2023-05-06T17:56:20.279Z,47.27
2023-05-06T17:58:48.222Z,47.74
2023-05-06T18:01:15.670Z,47.73
2023-05-06T18:03:44.076Z,48.06
2023-05-06T18:06:14.493Z,48.49
2023-05-06T18:08:42.130Z,48.57
2023-05-06T18:11:09.373Z,48.55
2023-05-06T18:13:36.982Z,48.51
2023-05-06T18:16:07.548Z,48.44
2023-05-06T18:18:34.717Z,49.34
2023-05-06T18:21:02.335Z,49.45
2023-05-06T18:23:29.971Z,49.76
2023-05-06T18:25:57.272Z,50.25
2023-05-06T18:28:24.871Z,51.21
2023-05-06T18:30:54.426Z,50.90
2023-05-06T18:33:21.941Z,50.95
2023-05-06T18:35:49.224Z,50.30
2023-05-06T18:38:16.354Z,50.23
2023-05-06T18:40:46.737Z,50.20
2023-05-06T18:43:13.809Z,50.17
2023-05-06T18:45:44.222Z,50.10
2023-05-06T18:48:12.652Z,50.11
2023-05-06T18:50:41.729Z,50.48
2023-05-06T18:53:08.847Z,50.41
2023-05-06T18:55:37.079Z,50.47
2023-05-06T18:58:06.263Z,50.31
2023-05-06T19:00:34.777Z,50.30
2023-05-06T19:03:02.542Z,50.42
2023-05-06T19:05:29.698Z,50.20
2023-05-06T19:07:56.918Z,50.01
2023-05-06T19:10:23.994Z,50.27
2023-05-06T19:12:51.367Z,50.62
2023-05-06T19:15:22.220Z,50.71
2023-05-06T19:17:49.311Z,50.49
2023-05-06T19:20:16.608Z,50.14
2023-05-06T19:22:44.561Z,49.79
2023-05-06T19:25:12.169Z,50.05
2023-05-06T19:27:39.484Z,50.08
2023-05-06T19:30:07.562Z,50.50
2023-05-06T19:32:34.830Z,50.54
2023-05-06T19:35:08.413Z,50.55
2023-05-06T19:37:36.647Z,50.56
2023-05-06T19:40:05.234Z,50.37
2023-05-06T19:42:34.267Z,50.62
2023-05-06T19:45:08.307Z,51.24
2023-05-06T19:47:35.706Z,50.82
2023-05-06T19:50:03.399Z,51.39
2023-05-06T19:52:31.340Z,51.26
2023-05-06T19:54:59.650Z,51.19
2023-05-06T19:57:27.706Z,51.35
2023-05-06T19:59:56.756Z,51.40
2023-05-06T20:02:24.083Z,51.43
2023-05-06T20:04:51.516Z,51.07
2023-05-06T20:07:20.949Z,50.89
2023-05-06T20:09:55.144Z,51.19
2023-05-06T20:12:31.641Z,50.83
2023-05-06T20:14:59.799Z,50.75
2023-05-06T20:17:27.248Z,50.83
2023-05-06T20:19:57.274Z,50.65
2023-05-06T20:22:26.085Z,50.72
2023-05-06T20:24:54.974Z,50.49
2023-05-06T20:27:22.185Z,51.10
2023-05-06T20:29:51.721Z,51.26
2023-05-06T20:32:22.113Z,51.01
2023-05-06T20:34:50.282Z,51.28
2023-05-06T20:37:21.428Z,51.28
2023-05-06T20:39:48.563Z,51.37
2023-05-06T20:42:16.737Z,51.62
2023-05-06T20:44:44.079Z,51.53
2023-05-06T20:47:13.265Z,51.89
2023-05-06T20:49:41.645Z,52.47
2023-05-06T20:52:14.340Z,52.91
2023-05-06T20:54:45.770Z,52.77
2023-05-06T20:57:17.556Z,53.17
2023-05-06T20:59:45.171Z,53.96
2023-05-06T21:02:12.812Z,54.00
2023-05-06T21:04:41.460Z,54.00
2023-05-06T21:07:08.667Z,53.66
2023-05-06T21:09:35.924Z,53.79
2023-05-06T21:12:03.083Z,53.54
2023-05-06T21:14:30.209Z,53.39
2023-05-06T21:16:57.280Z,53.44
2023-05-06T21:19:24.495Z,53.20
2023-05-06T21:21:51.594Z,53.07
2023-05-06T21:24:18.605Z,52.64
2023-05-06T21:26:45.835Z,52.68
2023-05-06T21:29:12.888Z,52.78
2023-05-06T21:31:40.057Z,53.30
2023-05-06T21:34:08.057Z,53.79
2023-05-06T21:36:38.333Z,53.78
2023-05-06T21:39:14.015Z,54.63
2023-05-06T21:41:41.618Z,54.47
2023-05-06T21:44:10.291Z,54.44
2023-05-06T21:46:38.054Z,54.19
2023-05-06T21:49:05.405Z,54.36
2023-05-06T21:51:35.951Z,54.29
2023-05-06T21:54:03.509Z,54.48
2023-05-06T21:56:30.692Z,53.97
2023-05-06T21:58:57.875Z,54.14
2023-05-06T22:01:29.244Z,53.86
2023-05-06T22:03:56.635Z,54.30
2023-05-06T22:06:23.845Z,54.13
2023-05-06T22:08:51.477Z,53.62
2023-05-06T22:11:18.652Z,53.27
2023-05-06T22:13:45.775Z,53.42
2023-05-06T22:16:13.210Z,53.38
2023-05-06T22:18:41.613Z,53.55
2023-05-06T22:21:09.802Z,53.51
2023-05-06T22:23:37.787Z,53.96
2023-05-06T22:26:04.984Z,53.54
2023-05-06T22:28:32.104Z,53.74
2023-05-06T22:30:59.284Z,53.94
2023-05-06T22:33:27.227Z,53.89
2023-05-06T22:35:55.531Z,53.88
2023-05-06T22:38:22.853Z,53.83
2023-05-06T22:40:50.094Z,54.17
2023-05-06T22:43:17.125Z,54.19
2023-05-06T22:45:44.443Z,54.42
2023-05-06T22:48:11.926Z,54.44
2023-05-06T22:50:39.017Z,54.68
2023-05-06T22:53:14.484Z,55.03
2023-05-06T22:55:43.050Z,55.00
2023-05-06T22:58:10.166Z,55.01
2023-05-06T23:00:37.328Z,55.62
2023-05-06T23:03:06.006Z,55.64
2023-05-06T23:05:33.153Z,55.78
2023-05-06T23:08:00.197Z,56.00
2023-05-06T23:10:27.995Z,55.98
2023-05-06T23:12:55.139Z,55.37
2023-05-06T23:15:23.035Z,55.46
2023-05-06T23:17:50.186Z,55.89
2023-05-06T23:20:17.393Z,55.95
2023-05-06T23:22:44.643Z,55.90
2023-05-06T23:25:12.091Z,56.03
2023-05-06T23:27:40.684Z,55.92
2023-05-06T23:30:10.815Z,55.92
2023-05-06T23:32:38.696Z,56.12
2023-05-06T23:35:07.697Z,56.47
2023-05-06T23:37:35.047Z,56.38
2023-05-06T23:40:02.607Z,56.43
2023-05-06T23:42:29.921Z,56.29
2023-05-06T23:44:58.308Z,56.27
2023-05-06T23:47:25.576Z,56.27
2023-05-06T23:49:52.679Z,56.43
2023-05-06T23:52:19.780Z,56.34
2023-05-06T23:54:46.909Z,56.63
2023-05-06T23:57:13.962Z,56.72
2023-05-06T23:59:41.098Z,57.02
